Time;durP1;ratioP1;P1;durP2;ratioP2;P2;SDS_P1;SDS_P2;PMS_P1;PMS_P2;Temp;Humidity;BMP_temperature;BMP_pressure;BME280_temperature;BME280_humidity;BME280_pressure;Samples;Min_cycle;Max_cycle;Signal;HPM_P1;HPM_P2
2021/08/31 00:02:13;;;;;;;21.67;16.98;;;14.80;99.90;;;;;;5005557;28;20042;-75
2021/08/31 00:04:40;;;;;;;21.30;16.45;;;14.90;99.90;;;;;;5017484;28;20076;-75
2021/08/31 00:07:06;;;;;;;22.23;15.98;;;14.90;99.90;;;;;;4986939;28;20115;-75
2021/08/31 00:09:33;;;;;;;21.88;17.50;;;14.90;99.90;;;;;;4986756;28;20202;-75
2021/08/31 00:12:00;;;;;;;24.63;17.02;;;14.90;99.90;;;;;;4986191;28;20114;-75
2021/08/31 00:14:27;;;;;;;23.85;17.10;;;14.80;99.90;;;;;;5003050;28;20112;-75
2021/08/31 00:16:54;;;;;;;21.20;16.40;;;14.90;99.90;;;;;;5003824;28;20045;-75
2021/08/31 00:19:20;;;;;;;21.38;16.70;;;14.90;99.90;;;;;;5002769;28;20049;-74
2021/08/31 00:21:47;;;;;;;27.52;17.83;;;14.90;99.90;;;;;;5002603;28;20100;-75
2021/08/31 00:24:14;;;;;;;25.00;17.98;;;14.90;99.90;;;;;;5004310;28;20406;-75
2021/08/31 00:26:41;;;;;;;28.38;18.13;;;14.90;99.90;;;;;;4985307;28;20093;-75
2021/08/31 00:29:08;;;;;;;25.42;18.38;;;14.80;99.90;;;;;;5011257;28;20050;-75
2021/08/31 00:31:35;;;;;;;27.05;19.60;;;14.80;99.90;;;;;;5019028;28;20042;-75
2021/08/31 00:34:02;;;;;;;26.48;18.90;;;14.70;99.90;;;;;;5013895;28;20099;-74
2021/08/31 00:36:29;;;;;;;27.50;19.13;;;14.70;99.90;;;;;;4985812;28;20050;-74
2021/08/31 00:38:56;;;;;;;27.27;19.27;;;14.70;99.90;;;;;;5004589;28;20042;-74
2021/08/31 00:41:24;;;;;;;24.85;17.42;;;14.70;99.90;;;;;;5033392;28;20368;-75
2021/08/31 00:43:51;;;;;;;22.40;18.48;;;14.70;99.90;;;;;;4991821;28;20080;-75
2021/08/31 00:46:20;;;;;;;26.90;20.10;;;14.70;99.90;;;;;;5012301;28;20052;-75
2021/08/31 00:48:50;;;;;;;24.23;18.35;;;14.70;99.90;;;;;;5003303;28;20064;-75
2021/08/31 00:51:22;;;;;;;25.20;17.02;;;14.70;99.90;;;;;;4988074;28;20454;-75
2021/08/31 00:53:51;;;;;;;24.70;17.27;;;14.60;99.90;;;;;;5001888;28;20502;-75
2021/08/31 00:56:19;;;;;;;24.38;17.20;;;14.60;99.90;;;;;;5035494;28;20054;-75
2021/08/31 00:58:46;;;;;;;21.90;17.25;;;14.60;99.90;;;;;;5026233;28;20049;-74
2021/08/31 01:01:13;;;;;;;24.70;17.42;;;14.60;99.90;;;;;;4998025;28;20049;-74
2021/08/31 01:03:41;;;;;;;26.17;17.83;;;14.70;99.90;;;;;;5022343;28;20391;-74
2021/08/31 01:06:08;;;;;;;24.90;17.88;;;14.70;99.90;;;;;;5001410;28;20058;-75
2021/08/31 01:08:35;;;;;;;23.60;16.50;;;14.70;99.90;;;;;;5001404;28;20068;-75
2021/08/31 01:11:02;;;;;;;26.55;17.38;;;14.60;99.90;;;;;;5001473;28;20054;-74
2021/08/31 01:13:33;;;;;;;29.13;18.70;;;14.60;99.90;;;;;;5002565;28;20049;-74
2021/08/31 01:16:01;;;;;;;22.85;18.10;;;14.50;99.90;;;;;;5009326;28;20046;-74
2021/08/31 01:18:28;;;;;;;24.67;18.42;;;14.50;99.90;;;;;;5002226;28;20130;-73
2021/08/31 01:20:57;;;;;;;24.50;17.75;;;14.50;99.90;;;;;;4983364;28;20468;-73
2021/08/31 01:23:26;;;;;;;23.08;17.10;;;14.50;99.90;;;;;;5033621;28;20147;-73
2021/08/31 01:25:54;;;;;;;24.15;17.42;;;14.50;99.90;;;;;;5003612;28;20054;-73
2021/08/31 01:28:24;;;;;;;22.73;17.55;;;14.40;99.90;;;;;;5006872;28;20422;-73
2021/08/31 01:30:56;;;;;;;23.85;18.10;;;14.40;99.90;;;;;;5012077;28;20091;-73
2021/08/31 01:33:27;;;;;;;23.38;17.20;;;14.40;99.90;;;;;;5004987;28;20319;-73
2021/08/31 01:35:54;;;;;;;25.85;18.95;;;14.30;99.90;;;;;;4998250;28;20061;-73
2021/08/31 01:38:21;;;;;;;26.15;18.48;;;14.20;99.90;;;;;;4992183;28;20050;-73
2021/08/31 01:40:48;;;;;;;27.13;18.80;;;14.10;99.90;;;;;;5001541;28;20380;-73
2021/08/31 01:43:26;;;;;;;26.77;19.35;;;14.00;99.90;;;;;;5004981;28;20220;-74
2021/08/31 01:45:53;;;;;;;30.77;20.25;;;13.90;99.90;;;;;;5015406;28;20445;-73
2021/08/31 01:48:20;;;;;;;28.73;20.45;;;13.80;99.90;;;;;;5002066;28;20054;-73
2021/08/31 01:50:48;;;;;;;25.77;20.50;;;13.80;99.90;;;;;;5002916;28;20052;-73
2021/08/31 01:53:15;;;;;;;31.30;19.27;;;13.60;99.90;;;;;;5002688;28;20065;-73
2021/08/31 01:55:41;;;;;;;29.58;20.60;;;13.40;99.90;;;;;;5004553;28;20192;-73
2021/08/31 01:58:08;;;;;;;30.08;21.25;;;13.30;99.90;;;;;;4972378;28;20041;-73
2021/08/31 02:00:35;;;;;;;28.30;20.25;;;13.30;99.90;;;;;;4997627;28;20148;-72
2021/08/31 02:03:03;;;;;;;32.72;21.83;;;13.10;99.90;;;;;;5007421;28;20046;-73
2021/08/31 02:05:30;;;;;;;34.30;22.48;;;13.00;99.90;;;;;;5006368;28;20065;-73
2021/08/31 02:07:57;;;;;;;33.60;21.58;;;13.00;99.90;;;;;;5010049;28;20128;-72
2021/08/31 02:10:24;;;;;;;34.97;21.90;;;13.00;99.90;;;;;;5008459;28;20426;-72
2021/08/31 02:12:51;;;;;;;33.08;21.88;;;13.00;99.90;;;;;;5006085;28;20443;-74
2021/08/31 02:15:18;;;;;;;36.70;21.77;;;13.00;99.90;;;;;;4988523;28;20735;-74
2021/08/31 02:17:45;;;;;;;34.25;22.25;;;13.00;99.90;;;;;;5006250;28;20128;-73
2021/08/31 02:20:12;;;;;;;33.05;21.95;;;13.00;99.90;;;;;;5022169;28;20126;-74
2021/08/31 02:22:40;;;;;;;32.90;21.33;;;12.90;99.90;;;;;;4972165;28;20563;-74
2021/08/31 02:25:07;;;;;;;30.48;20.42;;;13.00;99.90;;;;;;4989269;28;20225;-73
2021/08/31 02:27:35;;;;;;;30.88;20.38;;;12.90;99.90;;;;;;5005684;28;20088;-74
2021/08/31 02:30:05;;;;;;;34.38;21.40;;;12.90;99.90;;;;;;5001053;28;20049;-74
2021/08/31 02:32:32;;;;;;;32.25;20.58;;;12.90;99.90;;;;;;5024130;28;20303;-73
2021/08/31 02:34:59;;;;;;;33.67;21.80;;;12.90;99.90;;;;;;5013743;28;20135;-74
2021/08/31 02:37:26;;;;;;;35.55;22.75;;;12.90;99.90;;;;;;4994697;28;20049;-73
2021/08/31 02:39:53;;;;;;;34.78;23.10;;;12.90;99.90;;;;;;5012921;28;20054;-73
2021/08/31 02:42:20;;;;;;;33.65;23.20;;;12.90;99.90;;;;;;5016373;28;20053;-74
2021/08/31 02:44:46;;;;;;;35.72;22.13;;;12.90;99.90;;;;;;4996860;28;20089;-74
2021/08/31 02:47:19;;;;;;;32.50;22.05;;;13.00;99.90;;;;;;5012383;28;20073;-73
2021/08/31 02:49:46;;;;;;;34.15;22.17;;;12.90;99.90;;;;;;5013157;28;20383;-73
2021/08/31 02:52:13;;;;;;;32.80;21.33;;;13.10;99.90;;;;;;5013186;28;20057;-73
2021/08/31 02:54:40;;;;;;;34.58;23.08;;;13.00;99.90;;;;;;5012346;28;20049;-74
2021/08/31 02:57:08;;;;;;;30.58;20.98;;;13.00;99.90;;;;;;4989132;28;20092;-73
2021/08/31 02:59:35;;;;;;;36.00;22.40;;;13.00;99.90;;;;;;4995348;28;20067;-74
2021/08/31 03:02:04;;;;;;;29.45;20.77;;;12.90;99.90;;;;;;5006056;28;20042;-73
2021/08/31 03:04:39;;;;;;;31.48;21.25;;;12.80;99.90;;;;;;5007270;28;20229;-74
2021/08/31 03:07:15;;;;;;;34.95;21.52;;;12.80;99.90;;;;;;5003591;28;20410;-74
2021/08/31 03:09:42;;;;;;;28.48;20.90;;;12.90;99.90;;;;;;4987967;28;20065;-74
2021/08/31 03:12:10;;;;;;;33.70;21.05;;;12.90;99.90;;;;;;5004277;28;20057;-74
2021/08/31 03:14:37;;;;;;;29.35;20.85;;;12.90;99.90;;;;;;5004353;28;20074;-73
2021/08/31 03:17:05;;;;;;;32.22;21.58;;;12.90;99.90;;;;;;5004024;28;20050;-73
2021/08/31 03:19:32;;;;;;;27.48;19.70;;;12.90;99.90;;;;;;4988009;28;20085;-73
2021/08/31 03:22:00;;;;;;;29.70;20.25;;;12.80;99.90;;;;;;5003834;28;20062;-73
2021/08/31 03:24:28;;;;;;;34.35;22.75;;;12.90;99.90;;;;;;4987337;28;20057;-73
2021/08/31 03:26:55;;;;;;;29.55;19.85;;;12.80;99.90;;;;;;4987330;28;20046;-73
2021/08/31 03:29:22;;;;;;;30.20;19.75;;;12.90;99.90;;;;;;4994591;28;20396;-72
2021/08/31 03:31:49;;;;;;;35.53;21.17;;;12.70;99.90;;;;;;5020933;28;20099;-76
2021/08/31 03:34:16;;;;;;;30.85;20.73;;;12.70;99.90;;;;;;5020403;28;20050;-73
2021/08/31 03:36:45;;;;;;;31.80;21.30;;;12.80;99.90;;;;;;4987541;28;20137;-73
2021/08/31 03:39:12;;;;;;;33.05;21.02;;;12.70;99.90;;;;;;5003513;28;20245;-73
2021/08/31 03:41:39;;;;;;;28.30;19.60;;;12.80;99.90;;;;;;5004498;28;20241;-73
2021/08/31 03:44:06;;;;;;;31.65;20.00;;;12.80;99.90;;;;;;5005194;28;20061;-73
2021/08/31 03:46:32;;;;;;;36.35;22.50;;;12.90;99.90;;;;;;4987169;28;20061;-73
2021/08/31 03:49:00;;;;;;;29.08;20.10;;;12.90;99.90;;;;;;5006087;28;20048;-73
2021/08/31 03:51:27;;;;;;;29.98;20.48;;;12.90;99.90;;;;;;5002968;28;20042;-73
2021/08/31 03:53:54;;;;;;;28.02;19.77;;;12.90;99.90;;;;;;4971256;28;20562;-74
2021/08/31 03:56:24;;;;;;;30.95;20.88;;;12.90;99.90;;;;;;5002935;28;20050;-74
2021/08/31 03:58:54;;;;;;;31.73;20.50;;;13.00;99.90;;;;;;4993249;28;20051;-75
2021/08/31 04:01:21;;;;;;;33.22;21.20;;;13.10;99.90;;;;;;5010478;28;20085;-73
2021/08/31 04:03:48;;;;;;;30.10;20.48;;;13.20;99.90;;;;;;5003597;28;20069;-73
2021/08/31 04:06:15;;;;;;;35.15;22.00;;;13.10;99.90;;;;;;4969701;28;20058;-73
2021/08/31 04:08:41;;;;;;;38.67;22.13;;;13.10;99.90;;;;;;5002563;28;20502;-73
2021/08/31 04:11:08;;;;;;;34.33;22.50;;;13.00;99.90;;;;;;5002970;28;20050;-73
2021/08/31 04:13:35;;;;;;;28.92;20.13;;;13.00;99.90;;;;;;5003274;28;20042;-73
2021/08/31 04:16:02;;;;;;;34.00;21.58;;;13.10;99.90;;;;;;5003858;28;20045;-74
2021/08/31 04:18:29;;;;;;;29.83;21.10;;;13.10;99.90;;;;;;5004187;28;20180;-74
2021/08/31 04:20:55;;;;;;;34.38;22.58;;;13.10;99.90;;;;;;4986532;28;20100;-73
2021/08/31 04:23:22;;;;;;;36.25;21.75;;;13.10;99.90;;;;;;5001144;28;20131;-73
2021/08/31 04:25:49;;;;;;;37.00;22.50;;;13.20;99.90;;;;;;5002457;28;20052;-73
2021/08/31 04:28:15;;;;;;;41.20;23.75;;;13.20;99.90;;;;;;5006550;28;20584;-73
2021/08/31 04:30:42;;;;;;;32.42;22.30;;;13.10;99.90;;;;;;4996634;28;20373;-74
2021/08/31 04:33:09;;;;;;;41.40;24.55;;;13.10;99.90;;;;;;5022405;28;20502;-74
2021/08/31 04:35:36;;;;;;;35.28;24.25;;;13.20;99.90;;;;;;4988195;28;20062;-73
2021/08/31 04:38:02;;;;;;;41.50;24.13;;;13.20;99.90;;;;;;5005967;28;20034;-73
2021/08/31 04:40:29;;;;;;;37.33;22.45;;;13.30;99.90;;;;;;5009215;28;20054;-74
2021/08/31 04:42:56;;;;;;;39.35;24.63;;;13.30;99.90;;;;;;5007777;28;20459;-74
2021/08/31 04:45:23;;;;;;;36.78;23.63;;;13.40;99.90;;;;;;5005013;28;20259;-74
2021/08/31 04:47:49;;;;;;;45.08;23.13;;;13.40;99.90;;;;;;5003465;28;20058;-74
2021/08/31 04:50:16;;;;;;;36.10;23.70;;;13.20;99.90;;;;;;4985225;28;20420;-74
2021/08/31 04:52:45;;;;;;;37.67;23.73;;;13.10;99.90;;;;;;5001967;28;20057;-74
2021/08/31 04:55:12;;;;;;;35.72;22.92;;;13.10;99.90;;;;;;5002077;28;20116;-76
2021/08/31 04:57:39;;;;;;;36.05;22.20;;;13.10;99.90;;;;;;5003582;28;20054;-75
2021/08/31 05:00:06;;;;;;;30.92;20.48;;;13.10;99.90;;;;;;5011515;28;20048;-76
2021/08/31 05:02:35;;;;;;;31.20;21.00;;;13.10;99.90;;;;;;5005277;28;20452;-75
2021/08/31 05:05:03;;;;;;;32.20;21.00;;;13.20;99.90;;;;;;5005083;28;20060;-75
2021/08/31 05:07:30;;;;;;;28.52;20.05;;;13.30;99.90;;;;;;5016071;28;20505;-74
2021/08/31 05:09:57;;;;;;;31.45;19.55;;;13.20;99.90;;;;;;5017026;28;20054;-74
2021/08/31 05:12:24;;;;;;;33.03;20.60;;;13.20;99.90;;;;;;5001038;28;20492;-75
2021/08/31 05:14:50;;;;;;;38.30;24.05;;;13.30;99.90;;;;;;5007595;28;20042;-75
2021/08/31 05:17:17;;;;;;;38.47;23.35;;;13.50;99.90;;;;;;5016477;28;20080;-75
2021/08/31 05:19:44;;;;;;;39.17;23.55;;;13.30;99.90;;;;;;5002887;28;20103;-75
2021/08/31 05:22:11;;;;;;;55.10;29.83;;;13.40;99.90;;;;;;5002642;28;20127;-74
2021/08/31 05:24:38;;;;;;;56.88;31.30;;;13.40;99.90;;;;;;5000741;28;20123;-74
2021/08/31 05:27:06;;;;;;;63.15;36.88;;;13.50;99.90;;;;;;5000279;28;20057;-74
2021/08/31 05:29:33;;;;;;;66.13;35.28;;;13.50;99.90;;;;;;5009587;28;20133;-74
2021/08/31 05:32:00;;;;;;;67.10;36.90;;;13.50;99.90;;;;;;5002605;28;20061;-75
2021/08/31 05:34:27;;;;;;;60.80;35.17;;;13.50;99.90;;;;;;5012653;28;20104;-74
2021/08/31 05:36:57;;;;;;;61.40;33.83;;;13.50;99.90;;;;;;5000216;28;20042;-74
2021/08/31 05:39:32;;;;;;;61.53;33.95;;;13.50;99.90;;;;;;5001155;28;20640;-74
2021/08/31 05:42:01;;;;;;;53.33;31.45;;;13.60;99.90;;;;;;5013513;28;20057;-75
2021/08/31 05:44:28;;;;;;;40.17;25.25;;;13.60;99.90;;;;;;5001227;28;20120;-74
2021/08/31 05:46:55;;;;;;;37.63;25.00;;;13.60;99.90;;;;;;4999990;28;20050;-74
2021/08/31 05:49:21;;;;;;;37.38;25.20;;;13.70;99.90;;;;;;4984048;28;20080;-74
2021/08/31 05:51:48;;;;;;;43.08;26.58;;;13.70;99.90;;;;;;4988037;28;20442;-74
2021/08/31 05:54:15;;;;;;;49.58;30.17;;;13.70;99.90;;;;;;5004824;28;20472;-75
2021/08/31 05:56:42;;;;;;;48.65;30.38;;;13.80;99.90;;;;;;5008741;28;20077;-74
2021/08/31 05:59:09;;;;;;;51.53;31.65;;;13.90;99.90;;;;;;5012751;28;20319;-74
2021/08/31 06:01:36;;;;;;;49.60;29.80;;;13.90;99.90;;;;;;5019206;28;20456;-74
2021/08/31 06:04:03;;;;;;;47.67;30.98;;;14.00;99.90;;;;;;5040957;28;20416;-74
2021/08/31 06:06:30;;;;;;;50.90;29.70;;;13.90;99.90;;;;;;5023953;28;20053;-74
2021/08/31 06:08:57;;;;;;;51.33;31.73;;;14.00;99.90;;;;;;4995745;28;20056;-74
2021/08/31 06:11:23;;;;;;;49.42;31.75;;;14.10;99.90;;;;;;5005728;28;20061;-74
2021/08/31 06:13:50;;;;;;;45.58;31.23;;;14.00;99.90;;;;;;5004553;28;20402;-74
2021/08/31 06:16:17;;;;;;;49.58;30.45;;;14.10;99.90;;;;;;5011654;28;20041;-74
2021/08/31 06:18:44;;;;;;;49.00;31.48;;;14.20;99.90;;;;;;5005986;28;20057;-74
2021/08/31 06:21:10;;;;;;;49.22;30.25;;;14.20;99.90;;;;;;5005106;28;20537;-74
2021/08/31 06:23:37;;;;;;;43.50;29.85;;;14.20;99.90;;;;;;5004450;28;20107;-74
2021/08/31 06:26:04;;;;;;;42.65;28.55;;;14.30;99.90;;;;;;5004322;28;20046;-74
2021/08/31 06:28:31;;;;;;;41.05;27.00;;;14.40;99.90;;;;;;5011594;28;20559;-74
2021/08/31 06:30:58;;;;;;;45.63;29.38;;;14.50;99.90;;;;;;5007996;28;20053;-74
2021/08/31 06:33:24;;;;;;;41.92;28.75;;;14.50;99.90;;;;;;4988939;28;20191;-75
2021/08/31 06:35:51;;;;;;;43.33;28.10;;;14.60;99.90;;;;;;5021873;28;20042;-74
2021/08/31 06:38:18;;;;;;;38.30;27.67;;;14.60;99.90;;;;;;5007899;28;20046;-74
2021/08/31 06:40:45;;;;;;;39.63;26.15;;;14.60;99.90;;;;;;5005939;28;20049;-75
2021/08/31 06:43:11;;;;;;;38.08;25.85;;;14.70;99.90;;;;;;4987402;28;20139;-74
2021/08/31 06:45:38;;;;;;;37.25;25.95;;;14.90;99.90;;;;;;5004918;28;20075;-74
2021/08/31 06:48:05;;;;;;;39.83;27.60;;;14.90;99.90;;;;;;4972183;28;20058;-74
2021/08/31 06:50:32;;;;;;;44.20;28.95;;;14.90;99.90;;;;;;4971636;28;20045;-74
2021/08/31 06:53:00;;;;;;;39.67;27.58;;;14.90;99.90;;;;;;5005318;28;20409;-74
2021/08/31 06:55:26;;;;;;;41.22;27.27;;;15.00;99.90;;;;;;5004286;28;20081;-74
2021/08/31 06:57:53;;;;;;;43.13;28.90;;;14.90;99.90;;;;;;5003290;28;20069;-72
2021/08/31 07:00:20;;;;;;;55.17;33.13;;;14.80;99.90;;;;;;5014190;28;20045;-75
2021/08/31 07:02:47;;;;;;;49.20;32.35;;;14.90;99.90;;;;;;5021643;28;20046;-75
2021/08/31 07:05:14;;;;;;;46.05;30.52;;;15.00;99.90;;;;;;5024114;28;20486;-74
2021/08/31 07:07:41;;;;;;;44.05;29.25;;;15.20;99.90;;;;;;5019897;28;20124;-74
2021/08/31 07:10:08;;;;;;;44.47;31.10;;;15.30;99.90;;;;;;4969998;28;20116;-74
2021/08/31 07:12:35;;;;;;;40.30;29.83;;;15.50;99.90;;;;;;5004737;28;20112;-75
2021/08/31 07:15:02;;;;;;;45.08;31.02;;;15.60;99.90;;;;;;5003944;28;20351;-75
2021/08/31 07:17:29;;;;;;;45.03;32.10;;;15.60;99.90;;;;;;5007617;28;20434;-74
2021/08/31 07:19:55;;;;;;;46.67;32.88;;;15.50;99.90;;;;;;5003870;28;20435;-75
2021/08/31 07:22:22;;;;;;;43.13;31.40;;;15.50;99.90;;;;;;5003345;28;20053;-74
2021/08/31 07:24:49;;;;;;;44.25;31.17;;;15.50;99.90;;;;;;5003787;28;20049;-75
2021/08/31 07:27:16;;;;;;;46.83;30.88;;;15.60;99.90;;;;;;5005243;28;20068;-74
2021/08/31 07:29:43;;;;;;;48.70;32.50;;;15.70;99.90;;;;;;5010722;28;20049;-75
2021/08/31 07:32:10;;;;;;;47.28;33.55;;;15.80;99.90;;;;;;5023633;28;20052;-75
2021/08/31 07:34:39;;;;;;;43.97;32.25;;;15.90;99.90;;;;;;5014156;28;20096;-75
2021/08/31 07:37:07;;;;;;;49.22;31.33;;;16.20;99.90;;;;;;5004878;28;20058;-75
2021/08/31 07:39:34;;;;;;;42.15;28.38;;;16.10;99.90;;;;;;4987705;28;20034;-75
2021/08/31 07:42:02;;;;;;;41.40;28.77;;;16.20;99.90;;;;;;5001333;28;20042;-75
2021/08/31 07:44:29;;;;;;;38.88;29.17;;;15.90;99.90;;;;;;4999281;28;20053;-75
2021/08/31 07:46:57;;;;;;;42.70;29.52;;;15.90;99.90;;;;;;4993790;28;20076;-74
2021/08/31 07:49:24;;;;;;;40.50;28.95;;;15.90;99.90;;;;;;5006298;28;20632;-74
2021/08/31 07:51:51;;;;;;;44.63;30.45;;;15.90;99.90;;;;;;4990745;28;20050;-75
2021/08/31 07:54:17;;;;;;;42.60;29.30;;;15.90;99.90;;;;;;4990757;28;20077;-75
2021/08/31 07:56:44;;;;;;;42.53;30.77;;;16.00;99.90;;;;;;5006625;28;20053;-75
2021/08/31 07:59:12;;;;;;;41.95;30.13;;;16.00;99.90;;;;;;4994908;28;20083;-74
2021/08/31 08:01:39;;;;;;;38.50;26.63;;;15.90;99.90;;;;;;5017294;28;20363;-74
2021/08/31 08:04:06;;;;;;;35.92;26.88;;;16.00;99.90;;;;;;5021343;28;20140;-74
2021/08/31 08:06:33;;;;;;;38.80;29.70;;;16.00;99.90;;;;;;5022161;28;20155;-74
2021/08/31 08:09:00;;;;;;;40.35;29.08;;;16.10;99.90;;;;;;5024169;28;20072;-74
2021/08/31 08:11:27;;;;;;;42.38;28.77;;;16.30;99.90;;;;;;5023997;28;20061;-74
2021/08/31 08:13:53;;;;;;;40.67;28.50;;;16.30;99.90;;;;;;5014360;28;20371;-75
2021/08/31 08:16:20;;;;;;;35.92;27.50;;;16.30;99.90;;;;;;5006921;28;20043;-75
2021/08/31 08:18:48;;;;;;;36.40;26.67;;;16.20;99.90;;;;;;5003393;28;20403;-74
2021/08/31 08:21:15;;;;;;;41.33;28.05;;;16.30;99.90;;;;;;5003988;28;20054;-74
2021/08/31 08:23:42;;;;;;;39.70;29.25;;;16.10;99.90;;;;;;5003179;28;20511;-75
2021/08/31 08:26:09;;;;;;;39.30;29.60;;;16.00;99.90;;;;;;5001124;28;20074;-74
2021/08/31 08:28:38;;;;;;;42.08;28.02;;;16.00;99.90;;;;;;5006798;28;20062;-74
2021/08/31 08:31:05;;;;;;;37.63;25.73;;;16.00;99.90;;;;;;5009671;28;20053;-74
2021/08/31 08:33:33;;;;;;;39.10;28.17;;;16.20;99.90;;;;;;5002949;28;20111;-75
2021/08/31 08:36:01;;;;;;;36.08;25.10;;;16.40;99.90;;;;;;5003683;28;20053;-75
2021/08/31 08:38:29;;;;;;;35.85;26.55;;;16.60;99.90;;;;;;4986460;28;20045;-75
2021/08/31 08:41:00;;;;;;;31.85;23.60;;;16.90;99.90;;;;;;5002471;28;20470;-75
2021/08/31 08:43:27;;;;;;;32.92;25.90;;;17.20;99.90;;;;;;5018247;28;20056;-74
2021/08/31 08:45:54;;;;;;;41.47;30.55;;;17.30;99.90;;;;;;5010146;28;20045;-75
2021/08/31 08:48:24;;;;;;;34.80;24.33;;;17.20;99.90;;;;;;4985788;28;20342;-74
2021/08/31 08:50:58;;;;;;;37.58;26.15;;;17.20;99.90;;;;;;5003821;28;20124;-75
2021/08/31 08:53:26;;;;;;;40.75;30.55;;;17.40;99.90;;;;;;5004635;28;20260;-74
2021/08/31 08:55:53;;;;;;;38.33;28.83;;;17.20;99.90;;;;;;4985182;28;20046;-74
2021/08/31 08:58:20;;;;;;;40.88;28.77;;;17.00;99.90;;;;;;4989045;28;20045;-74
2021/08/31 09:01:04;;;;;;;38.83;27.98;;;16.90;99.90;;;;;;5029844;28;20587;-75
2021/08/31 09:03:34;;;;;;;38.10;27.40;;;16.90;99.90;;;;;;4980542;28;20172;-74
2021/08/31 09:06:05;;;;;;;38.95;27.30;;;16.90;99.90;;;;;;4982583;28;20300;-74
2021/08/31 09:08:33;;;;;;;30.90;24.23;;;16.80;99.90;;;;;;4982102;28;20196;-75
2021/08/31 09:11:26;;;;;;;34.25;25.35;;;16.60;99.90;;;;;;4982206;28;20050;-74
2021/08/31 09:14:20;;;;;;;35.47;26.17;;;16.80;99.90;;;;;;4986268;28;20104;-74
2021/08/31 09:17:01;;;;;;;35.67;27.15;;;16.70;99.90;;;;;;5001109;28;20107;-74
2021/08/31 09:19:40;;;;;;;36.58;26.08;;;16.60;99.90;;;;;;4986369;28;20525;-74
2021/08/31 09:22:24;;;;;;;35.50;25.40;;;16.50;99.90;;;;;;5001414;28;20426;-75
2021/08/31 09:24:58;;;;;;;35.22;24.50;;;16.50;99.90;;;;;;4985511;28;20065;-75
2021/08/31 09:27:36;;;;;;;35.17;26.93;;;16.60;99.90;;;;;;5001172;28;20597;-75
2021/08/31 09:30:21;;;;;;;33.47;24.40;;;16.60;99.90;;;;;;5013231;28;20251;-74
2021/08/31 09:33:06;;;;;;;34.40;26.17;;;16.60;99.90;;;;;;5021374;28;20045;-75
2021/08/31 09:35:59;;;;;;;37.83;28.67;;;16.70;99.90;;;;;;5004107;28;20049;-75
2021/08/31 09:38:57;;;;;;;40.28;26.77;;;16.90;99.90;;;;;;4985099;28;20046;-74
2021/08/31 09:41:45;;;;;;;38.35;28.05;;;16.90;99.90;;;;;;5001240;28;20050;-74
2021/08/31 09:44:26;;;;;;;33.72;26.48;;;17.10;99.90;;;;;;5003090;28;20045;-75
2021/08/31 09:46:57;;;;;;;37.17;28.02;;;17.10;99.90;;;;;;5001240;28;20045;-74
2021/08/31 09:49:28;;;;;;;37.30;28.73;;;17.20;99.90;;;;;;4984913;28;20141;-75
2021/08/31 09:52:08;;;;;;;36.45;27.85;;;17.30;99.90;;;;;;5001568;28;20633;-75
2021/08/31 09:54:47;;;;;;;38.45;28.05;;;17.30;99.90;;;;;;5002035;28;20077;-75
2021/08/31 09:57:28;;;;;;;41.33;28.45;;;17.20;99.90;;;;;;5036123;28;20557;-75
2021/08/31 09:59:56;;;;;;;38.50;27.88;;;17.30;99.90;;;;;;5010318;28;20053;-75
2021/08/31 10:02:24;;;;;;;45.67;30.80;;;17.30;99.90;;;;;;5004313;28;20504;-75
2021/08/31 10:04:53;;;;;;;40.55;30.20;;;17.20;99.90;;;;;;5019797;28;20052;-75
2021/08/31 10:07:22;;;;;;;38.90;28.88;;;17.30;99.90;;;;;;5021339;28;20131;-75
2021/08/31 10:09:50;;;;;;;45.13;30.90;;;17.20;99.90;;;;;;5021686;28;20061;-75
2021/08/31 10:12:20;;;;;;;42.15;30.48;;;17.20;99.90;;;;;;4987180;28;20065;-76
2021/08/31 10:14:51;;;;;;;42.45;32.78;;;17.40;99.90;;;;;;5017968;28;20440;-76
2021/08/31 10:17:22;;;;;;;39.63;31.25;;;17.60;99.90;;;;;;5000878;28;20053;-76
2021/08/31 10:19:51;;;;;;;42.05;32.35;;;17.70;99.90;;;;;;5001971;28;20081;-75
2021/08/31 10:22:18;;;;;;;38.63;30.60;;;17.60;99.90;;;;;;5000855;28;20057;-75
2021/08/31 10:24:46;;;;;;;39.88;29.25;;;17.80;99.90;;;;;;5018019;28;20149;-75
2021/08/31 10:27:32;;;;;;;37.35;28.52;;;18.10;99.90;;;;;;4984397;28;20054;-76
2021/08/31 10:30:17;;;;;;;40.92;31.10;;;18.40;99.90;;;;;;4996460;28;20911;-75
2021/08/31 10:32:46;;;;;;;37.08;28.75;;;18.50;99.90;;;;;;5014993;28;20054;-76
2021/08/31 10:35:31;;;;;;;39.20;30.42;;;18.50;99.90;;;;;;4994618;28;20469;-74
2021/08/31 10:38:00;;;;;;;33.95;27.40;;;18.60;99.90;;;;;;5005808;28;20060;-74
2021/08/31 10:40:45;;;;;;;36.42;29.55;;;18.80;99.90;;;;;;5004256;28;20038;-74
2021/08/31 10:43:51;;;;;;;39.25;29.27;;;18.80;99.90;;;;;;5004512;28;20066;-74
2021/08/31 10:46:18;;;;;;;39.85;30.40;;;18.60;99.90;;;;;;5003917;28;20568;-75
2021/08/31 10:48:59;;;;;;;38.83;28.60;;;18.40;99.90;;;;;;5004723;28;20560;-74
2021/08/31 10:51:26;;;;;;;41.83;28.63;;;18.50;99.90;;;;;;4989589;28;20041;-76
2021/08/31 10:53:53;;;;;;;38.05;29.25;;;18.60;99.90;;;;;;5008414;28;20499;-74
2021/08/31 10:56:23;;;;;;;34.55;26.60;;;18.70;99.90;;;;;;5038321;28;20317;-76
2021/08/31 10:58:58;;;;;;;35.40;25.98;;;18.70;99.90;;;;;;5009976;28;20042;-78
2021/08/31 11:01:47;;;;;;;33.40;25.42;;;19.00;99.90;;;;;;4978969;28;20050;-75
2021/08/31 11:04:31;;;;;;;34.80;26.35;;;19.10;99.90;;;;;;4987912;28;20108;-73
2021/08/31 11:06:59;;;;;;;34.38;26.45;;;19.30;99.90;;;;;;4972166;28;20065;-73
2021/08/31 11:09:26;;;;;;;50.75;34.63;;;19.20;99.90;;;;;;5004135;28;20061;-74
2021/08/31 11:12:11;;;;;;;40.25;28.15;;;18.90;99.90;;;;;;5003792;28;20045;-74
2021/08/31 11:14:48;;;;;;;32.90;25.08;;;18.60;99.90;;;;;;5004322;28;20038;-75
2021/08/31 11:17:38;;;;;;;34.03;23.73;;;18.40;99.90;;;;;;5001178;28;20053;-75
2021/08/31 11:20:12;;;;;;;30.92;24.83;;;18.40;99.90;;;;;;5004319;28;20112;-75
2021/08/31 11:22:39;;;;;;;33.83;24.70;;;18.50;99.90;;;;;;4987096;28;20054;-78
2021/08/31 11:25:07;;;;;;;25.45;21.70;;;19.00;99.90;;;;;;5004296;28;20548;-75
2021/08/31 11:27:54;;;;;;;24.08;21.23;;;19.20;99.90;;;;;;5006945;28;20066;-75
2021/08/31 11:30:22;;;;;;;22.73;20.33;;;19.60;99.90;;;;;;5027533;28;20554;-74
2021/08/31 11:33:12;;;;;;;24.95;22.25;;;20.00;99.90;;;;;;5004210;28;20422;-74
2021/08/31 11:35:40;;;;;;;27.23;22.98;;;19.90;99.90;;;;;;5003020;28;20137;-74
2021/08/31 11:38:06;;;;;;;25.48;21.88;;;20.00;99.90;;;;;;4971264;28;20068;-74
2021/08/31 11:40:33;;;;;;;23.30;20.90;;;20.10;99.90;;;;;;4987351;28;20113;-75
2021/08/31 11:43:01;;;;;;;26.90;21.80;;;20.10;99.90;;;;;;5005251;28;20046;-74
2021/08/31 11:45:41;;;;;;;23.77;21.50;;;19.80;99.90;;;;;;5001846;28;20111;-75
2021/08/31 11:48:09;;;;;;;21.80;19.75;;;19.80;99.90;;;;;;4999602;28;20108;-75
2021/08/31 11:50:36;;;;;;;22.40;20.30;;;19.80;99.90;;;;;;5002152;28;20469;-74
2021/08/31 11:53:19;;;;;;;21.80;19.48;;;20.00;99.90;;;;;;5000614;28;20471;-75
2021/08/31 11:56:00;;;;;;;21.20;19.40;;;19.90;99.90;;;;;;5001707;28;20050;-74
2021/08/31 11:58:28;;;;;;;22.73;20.42;;;19.80;99.90;;;;;;4992280;28;20046;-74
2021/08/31 12:00:55;;;;;;;22.40;20.23;;;19.40;99.90;;;;;;5014376;28;20045;-73
2021/08/31 12:03:30;;;;;;;23.05;20.70;;;19.50;99.90;;;;;;5005542;28;20156;-74
2021/08/31 12:06:12;;;;;;;24.33;19.70;;;19.40;99.90;;;;;;5010864;28;20046;-74
2021/08/31 12:08:43;;;;;;;21.35;19.23;;;19.20;99.90;;;;;;4987273;28;20057;-74
2021/08/31 12:11:11;;;;;;;20.65;18.50;;;19.50;99.90;;;;;;5004175;28;20053;-74
2021/08/31 12:13:42;;;;;;;20.80;18.75;;;19.60;99.90;;;;;;5002947;28;20050;-73
2021/08/31 12:16:11;;;;;;;21.73;19.48;;;19.70;99.90;;;;;;4999708;28;20125;-74
2021/08/31 12:18:38;;;;;;;30.13;21.90;;;19.70;99.90;;;;;;4986446;28;20407;-73
2021/08/31 12:21:19;;;;;;;20.13;18.27;;;19.70;99.90;;;;;;5003643;28;20061;-74
2021/08/31 12:23:48;;;;;;;18.00;16.23;;;19.90;99.90;;;;;;5002314;28;20140;-75
2021/08/31 12:26:35;;;;;;;35.05;23.98;;;20.20;99.90;;;;;;5002301;28;20536;-75
2021/08/31 12:29:07;;;;;;;20.52;18.83;;;20.40;99.90;;;;;;5010272;28;20057;-74
2021/08/31 12:31:35;;;;;;;20.20;18.20;;;20.50;99.90;;;;;;5012671;28;20473;-75
2021/08/31 12:34:23;;;;;;;18.10;16.50;;;20.60;99.90;;;;;;5018656;28;20072;-75
2021/08/31 12:36:50;;;;;;;20.38;18.67;;;20.70;99.90;;;;;;4988404;28;20061;-74
2021/08/31 12:39:26;;;;;;;21.42;19.52;;;20.90;99.90;;;;;;5002316;28;20095;-74
2021/08/31 12:41:54;;;;;;;20.67;18.67;;;21.00;99.90;;;;;;5003523;28;20132;-73